Time;durP1;ratioP1;P1;durP2;ratioP2;P2;SDS_P1;SDS_P2;PMS_P1;PMS_P2;Temp;Humidity;BMP_temperature;BMP_pressure;BME280_temperature;BME280_humidity;BME280_pressure;Samples;Min_cycle;Max_cycle;Signal;HPM_P1;HPM_P2
2022/04/24 00:01:57;;;;;;;7.88;6.53;;;;;;;14.45;42.77;100120.38;5046583;28;20033;-63
2022/04/24 00:04:24;;;;;;;9.80;6.25;;;;;;;14.39;42.43;100122.78;5029712;28;20095;-63
2022/04/24 00:06:53;;;;;;;8.52;6.05;;;;;;;14.28;42.85;100108.53;5029464;28;20497;-63
2022/04/24 00:09:22;;;;;;;7.30;5.93;;;;;;;14.41;42.59;100112.75;5046617;28;20488;-63
2022/04/24 00:11:48;;;;;;;6.65;5.97;;;;;;;14.32;42.58;100118.00;5033214;28;20032;-63
2022/04/24 00:14:14;;;;;;;6.80;6.10;;;;;;;14.21;42.89;100112.75;5045820;28;20500;-63
2022/04/24 00:16:40;;;;;;;8.90;6.60;;;;;;;14.10;43.08;100112.88;5031317;28;20076;-63
2022/04/24 00:19:08;;;;;;;8.05;6.15;;;;;;;14.08;43.68;100115.66;5045775;28;20041;-63
2022/04/24 00:21:34;;;;;;;7.13;6.43;;;;;;;14.03;43.29;100106.34;5030581;28;20025;-63
2022/04/24 00:24:00;;;;;;;6.93;6.25;;;;;;;13.97;43.78;100102.44;5030604;28;20021;-63
2022/04/24 00:26:25;;;;;;;9.30;6.55;;;;;;;13.88;44.00;100110.41;5031626;28;20488;-63
2022/04/24 00:28:51;;;;;;;7.15;6.45;;;;;;;13.72;44.67;100106.44;5030588;28;20037;-63
2022/04/24 00:31:16;;;;;;;6.93;6.32;;;;;;;13.61;44.86;100099.34;5045527;28;20443;-63
2022/04/24 00:33:42;;;;;;;7.75;6.78;;;;;;;13.62;44.90;100098.38;5030195;28;20386;-63
2022/04/24 00:36:07;;;;;;;7.80;6.82;;;;;;;13.71;44.74;100099.41;5030393;28;20060;-63
2022/04/24 00:38:34;;;;;;;7.53;6.57;;;;;;;13.64;44.95;100100.91;5028983;28;20045;-63
2022/04/24 00:41:00;;;;;;;6.57;5.97;;;;;;;13.67;44.57;100102.47;5031481;28;20488;-63
2022/04/24 00:43:25;;;;;;;7.75;7.00;;;;;;;13.60;45.00;100100.34;5030930;28;20025;-63
2022/04/24 00:46:12;;;;;;;7.30;6.38;;;;;;;13.62;44.67;100094.88;5034980;28;20048;-63
2022/04/24 00:48:38;;;;;;;6.97;6.38;;;;;;;13.51;45.38;100094.97;5031423;28;20041;-63
2022/04/24 00:51:04;;;;;;;7.65;6.85;;;;;;;13.47;45.70;100104.19;5033801;28;20028;-63
2022/04/24 00:53:32;;;;;;;7.35;6.65;;;;;;;13.42;45.68;100101.94;5034258;28;20026;-63
2022/04/24 00:55:57;;;;;;;7.28;6.57;;;;;;;13.31;45.88;100094.84;5034514;28;20102;-63
2022/04/24 00:58:26;;;;;;;8.50;6.80;;;;;;;13.26;46.19;100098.91;5052846;28;20022;-63
2022/04/24 01:00:52;;;;;;;7.68;6.93;;;;;;;13.28;45.65;100100.47;5017774;28;20018;-63
2022/04/24 01:03:18;;;;;;;7.80;7.10;;;;;;;13.21;45.89;100093.94;5051270;28;20052;-63
2022/04/24 01:05:43;;;;;;;7.90;7.20;;;;;;;13.14;46.39;100100.78;5035552;28;20029;-63
2022/04/24 01:08:08;;;;;;;8.07;7.38;;;;;;;13.07;47.03;100102.28;5050314;28;20037;-63
2022/04/24 01:10:41;;;;;;;7.70;7.00;;;;;;;13.11;46.64;100101.03;5049357;28;20394;-63
2022/04/24 01:13:10;;;;;;;9.43;7.28;;;;;;;13.04;46.70;100102.56;5034386;28;20034;-63
2022/04/24 01:15:35;;;;;;;8.10;7.38;;;;;;;13.02;46.88;100099.16;5034066;28;20034;-63
2022/04/24 01:18:01;;;;;;;8.18;7.47;;;;;;;12.96;47.19;100101.38;5033925;28;20388;-63
2022/04/24 01:20:27;;;;;;;8.35;7.50;;;;;;;12.99;47.01;100105.59;5033147;28;20164;-63
2022/04/24 01:22:53;;;;;;;8.10;7.40;;;;;;;12.93;47.48;100101.63;5036621;28;20514;-63
2022/04/24 01:25:21;;;;;;;7.75;7.05;;;;;;;12.90;47.49;100109.91;5051100;28;20075;-63
2022/04/24 01:27:47;;;;;;;10.00;7.80;;;;;;;12.86;47.73;100110.31;5048852;28;20021;-63
2022/04/24 01:30:12;;;;;;;8.20;7.40;;;;;;;12.87;47.37;100106.66;5033304;28;20045;-63
2022/04/24 01:32:39;;;;;;;8.55;7.80;;;;;;;12.69;47.73;100107.22;5048534;28;20378;-63
2022/04/24 01:35:05;;;;;;;8.80;8.00;;;;;;;12.64;48.29;100106.75;5032936;28;20037;-63
2022/04/24 01:37:31;;;;;;;10.52;7.47;;;;;;;12.70;48.07;100105.38;5031715;28;20136;-63
2022/04/24 01:39:56;;;;;;;7.90;7.15;;;;;;;12.67;48.23;100101.16;5033829;28;20406;-63
2022/04/24 01:42:22;;;;;;;10.13;7.72;;;;;;;12.66;47.77;100102.16;5033544;28;20087;-63
2022/04/24 01:44:48;;;;;;;8.02;7.22;;;;;;;12.63;48.39;100101.56;5033290;28;20385;-63
2022/04/24 01:47:13;;;;;;;9.18;8.27;;;;;;;12.67;48.19;100102.97;5032522;28;20408;-63
2022/04/24 01:49:41;;;;;;;8.63;7.15;;;;;;;12.55;48.42;100102.19;5049077;28;20030;-63
2022/04/24 01:52:07;;;;;;;8.68;7.50;;;;;;;12.62;48.03;100108.72;5033856;28;20087;-63
2022/04/24 01:54:33;;;;;;;8.48;7.70;;;;;;;12.61;48.06;100104.34;5032130;28;20420;-63
2022/04/24 01:56:58;;;;;;;8.45;7.68;;;;;;;12.54;48.30;100107.66;5032974;28;20034;-63
2022/04/24 01:59:24;;;;;;;8.73;7.95;;;;;;;12.43;48.63;100098.72;5034169;28;20028;-63
2022/04/24 02:01:50;;;;;;;8.68;7.78;;;;;;;12.45;48.43;100106.59;5048277;28;20087;-63
2022/04/24 02:04:16;;;;;;;8.68;7.82;;;;;;;12.42;48.48;100101.53;5032766;28;20033;-63
2022/04/24 02:06:42;;;;;;;8.60;7.90;;;;;;;12.40;48.67;100100.81;5032288;28;20044;-63
2022/04/24 02:09:10;;;;;;;8.48;7.72;;;;;;;12.41;48.46;100100.69;5048157;28;20033;-62
2022/04/24 02:11:38;;;;;;;10.63;8.50;;;;;;;12.33;48.72;100086.28;5032710;28;20029;-63
2022/04/24 02:14:05;;;;;;;8.38;7.50;;;;;;;12.31;49.10;100096.22;5049753;28;20053;-63
2022/04/24 02:16:32;;;;;;;10.38;8.32;;;;;;;12.24;48.76;100103.91;5033231;28;20025;-63
2022/04/24 02:18:58;;;;;;;8.40;7.60;;;;;;;12.23;49.10;100102.19;5049388;28;20056;-62
2022/04/24 02:21:24;;;;;;;8.60;7.60;;;;;;;12.32;49.22;100100.56;5049681;28;20465;-63
2022/04/24 02:23:49;;;;;;;8.90;7.80;;;;;;;12.31;49.17;100101.56;5031641;28;20072;-63
2022/04/24 02:26:15;;;;;;;8.38;7.68;;;;;;;12.35;48.84;100095.00;5032687;28;20037;-63
2022/04/24 02:28:41;;;;;;;8.57;7.50;;;;;;;12.30;48.81;100106.06;5031409;28;20021;-63
2022/04/24 02:31:07;;;;;;;9.50;7.65;;;;;;;12.31;48.75;100098.91;5047400;28;20116;-63
2022/04/24 02:33:35;;;;;;;8.35;7.60;;;;;;;12.20;49.46;100105.94;5032930;28;20034;-63
2022/04/24 02:36:00;;;;;;;9.18;8.07;;;;;;;12.18;48.91;100094.56;5031961;28;20033;-64
2022/04/24 02:38:26;;;;;;;8.75;7.90;;;;;;;12.08;49.60;100092.78;5050136;28;20079;-63
2022/04/24 02:40:52;;;;;;;9.02;8.07;;;;;;;12.11;49.58;100104.03;5030643;28;20036;-63
2022/04/24 02:43:17;;;;;;;9.98;8.20;;;;;;;12.20;49.34;100100.59;5047764;28;20032;-63
2022/04/24 02:45:43;;;;;;;9.25;8.45;;;;;;;12.09;49.27;100097.13;5033071;28;20025;-63
2022/04/24 02:48:09;;;;;;;8.60;7.72;;;;;;;12.11;49.74;100104.03;5046791;28;20079;-63
2022/04/24 02:50:35;;;;;;;9.13;8.32;;;;;;;12.16;49.59;100095.66;5048008;28;20369;-63
2022/04/24 02:53:01;;;;;;;9.77;8.88;;;;;;;12.12;49.87;100105.75;5030024;28;20029;-63
2022/04/24 02:55:26;;;;;;;9.93;8.90;;;;;;;12.07;50.06;100102.59;5032507;28;20084;-63
2022/04/24 02:57:55;;;;;;;9.27;8.30;;;;;;;12.06;49.93;100103.59;5048753;28;20087;-63
2022/04/24 03:00:39;;;;;;;10.40;9.35;;;;;;;12.05;49.46;100104.53;5031562;28;20405;-63
2022/04/24 03:03:06;;;;;;;9.57;8.50;;;;;;;12.01;50.25;100101.28;5031913;28;20505;-63
2022/04/24 03:05:32;;;;;;;9.93;9.02;;;;;;;12.03;49.84;100098.50;5031988;28;20307;-62
2022/04/24 03:07:57;;;;;;;11.30;9.38;;;;;;;12.01;49.68;100100.44;5049106;28;20389;-63
2022/04/24 03:10:23;;;;;;;9.73;8.82;;;;;;;11.97;50.23;100106.97;5047192;28;20036;-63
2022/04/24 03:12:48;;;;;;;10.85;9.20;;;;;;;11.91;50.39;100105.66;5035031;28;20515;-63
2022/04/24 03:15:17;;;;;;;10.35;9.45;;;;;;;11.86;50.93;100112.34;5031285;28;20546;-63
2022/04/24 03:17:43;;;;;;;10.80;9.60;;;;;;;11.83;50.28;100110.72;5032846;28;20108;-63
2022/04/24 03:20:10;;;;;;;10.60;9.60;;;;;;;11.73;51.33;100112.41;5031378;28;20497;-63
2022/04/24 03:22:36;;;;;;;10.50;9.50;;;;;;;11.72;51.29;100102.75;5046834;28;20159;-63
2022/04/24 03:25:03;;;;;;;10.95;9.98;;;;;;;11.70;50.77;100096.69;5031851;28;20029;-63
2022/04/24 03:27:29;;;;;;;11.35;9.65;;;;;;;11.54;51.30;100108.56;5031704;28;20025;-63
2022/04/24 03:29:56;;;;;;;12.40;10.00;;;;;;;11.47;51.47;100109.16;5032036;28;20021;-63
2022/04/24 03:32:21;;;;;;;10.35;9.35;;;;;;;11.50;51.76;100116.91;5046975;28;20040;-63
2022/04/24 03:34:47;;;;;;;10.27;8.85;;;;;;;11.47;51.90;100110.03;5045546;28;20188;-63
2022/04/24 03:37:13;;;;;;;11.25;10.13;;;;;;;11.44;51.76;100114.72;5013143;28;20026;-63
2022/04/24 03:39:42;;;;;;;11.23;10.13;;;;;;;11.35;52.17;100114.50;5031319;28;20021;-63
2022/04/24 03:42:07;;;;;;;11.32;10.23;;;;;;;11.31;52.15;100117.50;5031142;28;20396;-63
2022/04/24 03:44:33;;;;;;;11.77;10.60;;;;;;;11.28;52.46;100121.25;5031128;28;20036;-63
2022/04/24 03:46:59;;;;;;;11.52;10.38;;;;;;;11.16;52.58;100100.91;5030261;28;20037;-63
2022/04/24 03:49:26;;;;;;;11.52;10.52;;;;;;;11.14;52.53;100109.00;5034982;28;20041;-63
2022/04/24 03:51:52;;;;;;;12.98;11.43;;;;;;;11.07;52.62;100110.44;5031576;28;20179;-63
2022/04/24 03:54:17;;;;;;;11.55;10.40;;;;;;;11.10;52.70;100107.56;5031080;28;20025;-63
2022/04/24 03:56:43;;;;;;;11.40;10.30;;;;;;;11.16;52.65;100114.22;5031389;28;20029;-63
2022/04/24 03:59:12;;;;;;;11.25;10.25;;;;;;;11.14;52.96;100114.31;5030515;28;20033;-63
2022/04/24 04:01:37;;;;;;;11.82;10.63;;;;;;;11.11;53.29;100117.22;5032460;28;20029;-63
2022/04/24 04:04:05;;;;;;;12.27;11.05;;;;;;;11.04;53.28;100102.72;5028921;28;20028;-63
2022/04/24 04:06:31;;;;;;;12.13;10.63;;;;;;;11.07;53.61;100114.94;5033716;28;20026;-62
2022/04/24 04:08:57;;;;;;;12.60;10.57;;;;;;;11.00;53.75;100111.91;5030882;28;20045;-63
2022/04/24 04:11:23;;;;;;;12.10;10.48;;;;;;;10.91;53.89;100105.47;5030950;28;20040;-62
2022/04/24 04:13:48;;;;;;;12.38;10.52;;;;;;;10.89;54.22;100111.88;5030721;28;20042;-63
2022/04/24 04:16:14;;;;;;;13.68;11.02;;;;;;;10.89;53.90;100110.06;5047565;28;20037;-63
2022/04/24 04:18:42;;;;;;;11.77;10.68;;;;;;;10.86;54.27;100114.75;5033169;28;20812;-62
2022/04/24 04:21:08;;;;;;;11.55;10.45;;;;;;;10.90;54.45;100122.38;5025107;28;20401;-63
2022/04/24 04:23:35;;;;;;;12.18;10.98;;;;;;;10.85;53.99;100123.69;5040955;28;20029;-63
2022/04/24 04:26:03;;;;;;;13.65;10.63;;;;;;;10.86;54.48;100117.44;5052621;28;20043;-63
2022/04/24 04:28:29;;;;;;;30.00;10.95;;;;;;;10.77;54.45;100116.31;5039476;28;20124;-63
2022/04/24 04:30:55;;;;;;;13.45;11.25;;;;;;;10.78;54.47;100122.47;5037296;28;20104;-63
2022/04/24 04:33:21;;;;;;;13.05;11.02;;;;;;;10.72;55.24;100123.78;5037807;28;20056;-63
2022/04/24 04:35:47;;;;;;;12.38;10.73;;;;;;;10.75;55.41;100126.22;5035741;28;20041;-62
2022/04/24 04:38:14;;;;;;;13.38;11.07;;;;;;;10.81;54.66;100133.72;5036480;28;20075;-63
2022/04/24 04:40:42;;;;;;;12.02;10.85;;;;;;;10.82;54.87;100134.56;5052105;28;20116;-62
2022/04/24 04:43:08;;;;;;;11.95;10.85;;;;;;;10.72;55.29;100136.25;5052960;28;20040;-63
2022/04/24 04:45:34;;;;;;;13.63;11.25;;;;;;;10.66;55.56;100130.41;5035511;28;20025;-63
2022/04/24 04:48:02;;;;;;;11.45;10.25;;;;;;;10.74;55.57;100136.97;5036720;28;20021;-63
2022/04/24 04:50:28;;;;;;;11.82;10.55;;;;;;;10.58;55.90;100140.75;5054368;28;20417;-63
2022/04/24 04:52:53;;;;;;;11.93;10.48;;;;;;;10.56;56.28;100145.38;5035275;28;20479;-63
2022/04/24 04:55:19;;;;;;;11.43;9.73;;;;;;;10.53;56.17;100140.28;5051963;28;20038;-62
2022/04/24 04:57:45;;;;;;;12.07;10.88;;;;;;;10.55;56.60;100148.97;5037855;28;20025;-63
2022/04/24 05:00:13;;;;;;;11.60;10.40;;;;;;;10.58;56.21;100148.75;5020224;28;20029;-63
2022/04/24 05:02:41;;;;;;;11.48;10.35;;;;;;;10.64;56.23;100153.59;5036694;28;20035;-63
2022/04/24 05:05:09;;;;;;;13.27;10.40;;;;;;;10.51;57.10;100146.66;5036475;28;20536;-62
2022/04/24 05:07:37;;;;;;;11.55;10.40;;;;;;;10.54;57.03;100159.72;5051321;28;20033;-63
2022/04/24 05:10:04;;;;;;;11.10;9.98;;;;;;;10.60;56.38;100152.13;5036488;28;20025;-63
2022/04/24 05:12:30;;;;;;;11.88;10.70;;;;;;;10.58;56.46;100163.84;5052290;28;20022;-62
2022/04/24 05:15:06;;;;;;;13.07;11.25;;;;;;;10.57;56.42;100165.66;5037537;28;20047;-63
2022/04/24 05:17:34;;;;;;;12.50;10.80;;;;;;;10.49;57.40;100165.38;5036805;28;20037;-63
2022/04/24 05:20:00;;;;;;;13.10;10.27;;;;;;;10.54;56.72;100168.56;5035319;28;20441;-63
2022/04/24 05:22:27;;;;;;;11.20;10.10;;;;;;;10.51;57.11;100176.75;5037236;28;20392;-63
2022/04/24 05:24:55;;;;;;;12.52;10.77;;;;;;;10.66;56.75;100174.78;5037053;28;20034;-62
2022/04/24 05:27:22;;;;;;;11.05;10.05;;;;;;;10.71;56.22;100177.94;5034362;28;20124;-63
2022/04/24 05:29:48;;;;;;;11.05;10.05;;;;;;;10.62;56.64;100184.78;5036279;28;20503;-62
2022/04/24 05:32:14;;;;;;;13.82;10.40;;;;;;;10.61;56.48;100180.41;5032853;28;20037;-63
2022/04/24 05:34:40;;;;;;;12.80;10.68;;;;;;;10.62;56.83;100176.81;5031201;28;20029;-62
2022/04/24 05:37:08;;;;;;;13.93;11.43;;;;;;;10.67;56.43;100171.97;5034880;28;20028;-63
2022/04/24 05:39:34;;;;;;;13.18;10.38;;;;;;;10.71;56.19;100179.72;5035876;28;20068;-62
2022/04/24 05:42:00;;;;;;;14.60;10.65;;;;;;;10.66;57.10;100166.78;5034055;28;20068;-63
2022/04/24 05:44:26;;;;;;;14.13;10.52;;;;;;;10.67;57.01;100182.63;5033000;28;20033;-62
2022/04/24 05:46:52;;;;;;;11.20;10.10;;;;;;;10.73;56.59;100178.66;5047868;28;20029;-62
2022/04/24 05:49:18;;;;;;;11.45;9.77;;;;;;;10.80;56.39;100184.41;5034721;28;20029;-63
2022/04/24 05:51:44;;;;;;;13.82;10.65;;;;;;;10.85;56.46;100183.09;5033119;28;20435;-62
2022/04/24 05:54:10;;;;;;;11.32;10.23;;;;;;;10.89;55.96;100181.03;5031069;28;20049;-63
2022/04/24 05:56:35;;;;;;;10.43;9.48;;;;;;;11.01;55.75;100185.44;5032556;28;20128;-62
2022/04/24 05:59:02;;;;;;;10.38;9.48;;;;;;;11.06;55.84;100193.94;5035454;28;20124;-62
2022/04/24 06:01:27;;;;;;;11.27;10.18;;;;;;;11.14;55.07;100188.00;5038874;28;20026;-62
2022/04/24 06:03:53;;;;;;;14.13;9.27;;;;;;;11.21;55.47;100189.25;5049423;28;20116;-62
2022/04/24 06:06:18;;;;;;;11.52;10.02;;;;;;;11.23;55.06;100194.44;5033759;28;20274;-62
2022/04/24 06:08:44;;;;;;;14.10;9.70;;;;;;;11.26;54.62;100203.03;5031870;28;20037;-62
2022/04/24 06:11:09;;;;;;;10.60;9.50;;;;;;;11.35;54.58;100196.16;5031700;28;20454;-62
2022/04/24 06:13:35;;;;;;;11.68;10.15;;;;;;;11.35;55.11;100199.69;5031674;28;20104;-62
2022/04/24 06:16:01;;;;;;;10.70;9.60;;;;;;;11.53;55.00;100205.41;5034285;28;20507;-63
2022/04/24 06:18:29;;;;;;;14.73;9.20;;;;;;;11.50;53.62;100205.66;5030251;28;20038;-63
2022/04/24 06:20:55;;;;;;;14.00;9.48;;;;;;;11.62;53.90;100205.63;5032061;28;20029;-62
2022/04/24 06:23:21;;;;;;;15.52;9.60;;;;;;;11.60;53.22;100209.28;5032035;28;20036;-63
2022/04/24 06:25:47;;;;;;;11.13;9.52;;;;;;;11.71;53.24;100194.28;5036098;28;20074;-62
2022/04/24 06:28:13;;;;;;;9.90;8.90;;;;;;;11.79;52.66;100199.84;5031871;28;20112;-62
2022/04/24 06:30:41;;;;;;;10.93;9.75;;;;;;;11.78;53.30;100206.16;5047788;28;20040;-63
2022/04/24 06:33:08;;;;;;;10.15;9.15;;;;;;;11.95;52.43;100205.72;5048455;28;20095;-63
2022/04/24 06:35:33;;;;;;;11.35;9.13;;;;;;;12.02;52.15;100214.06;5047053;28;20084;-63
2022/04/24 06:37:59;;;;;;;11.43;8.73;;;;;;;12.22;51.65;100212.47;5034298;28;21878;-62
2022/04/24 06:40:25;;;;;;;10.05;9.05;;;;;;;12.26;51.59;100208.56;5036712;28;20022;-63
2022/04/24 06:42:56;;;;;;;9.35;8.45;;;;;;;12.19;51.17;100210.06;5033335;28;20470;-62
2022/04/24 06:45:25;;;;;;;11.00;9.82;;;;;;;12.27;51.41;100207.63;5034363;28;20021;-62
2022/04/24 06:47:53;;;;;;;11.60;8.98;;;;;;;12.31;50.64;100211.72;5032293;28;20032;-63
2022/04/24 06:50:19;;;;;;;16.92;9.70;;;;;;;12.28;50.48;100211.97;5047726;28;20025;-63
2022/04/24 06:52:54;;;;;;;10.75;9.20;;;;;;;12.31;50.78;100221.56;5032168;28;20029;-63
2022/04/24 06:55:21;;;;;;;9.82;8.93;;;;;;;12.46;50.31;100225.66;5032880;28;20473;-63
2022/04/24 06:57:48;;;;;;;12.95;9.07;;;;;;;12.54;50.63;100225.03;5033642;28;20021;-63
2022/04/24 07:00:16;;;;;;;9.93;8.48;;;;;;;12.62;50.10;100228.78;5046675;28;20550;-63
2022/04/24 07:02:41;;;;;;;9.82;8.88;;;;;;;12.75;49.95;100219.75;5031483;28;20174;-63
2022/04/24 07:05:07;;;;;;;10.27;9.05;;;;;;;12.82;48.97;100226.28;5033100;28;20120;-63
2022/04/24 07:07:32;;;;;;;11.15;9.40;;;;;;;12.78;49.21;100190.16;5030994;28;20048;-63
2022/04/24 07:09:59;;;;;;;9.88;8.65;;;;;;;12.98;48.97;100210.69;5047614;28;20045;-62
2022/04/24 07:12:25;;;;;;;10.70;9.45;;;;;;;12.95;49.03;100214.47;5047428;28;20029;-62
2022/04/24 07:14:51;;;;;;;10.02;9.00;;;;;;;13.07;49.20;100223.28;5030235;28;20049;-63
2022/04/24 07:17:18;;;;;;;13.25;9.70;;;;;;;13.21;48.12;100227.47;5030716;28;20080;-63
2022/04/24 07:19:44;;;;;;;10.65;8.85;;;;;;;13.34;47.90;100216.59;5046123;28;20029;-63
2022/04/24 07:22:09;;;;;;;11.07;9.98;;;;;;;13.49;48.29;100217.13;5033224;28;20048;-63
2022/04/24 07:24:35;;;;;;;10.85;9.75;;;;;;;13.62;47.85;100218.63;5034174;28;20096;-62
2022/04/24 07:27:00;;;;;;;13.38;9.80;;;;;;;13.68;47.65;100227.06;5031336;28;20096;-63
2022/04/24 07:29:26;;;;;;;11.05;9.88;;;;;;;13.77;46.84;100226.31;5031926;28;20403;-63
2022/04/24 07:31:51;;;;;;;15.65;10.25;;;;;;;13.86;46.50;100230.84;5029674;28;20040;-63
2022/04/24 07:34:17;;;;;;;11.07;9.98;;;;;;;13.86;46.68;100231.69;5030721;28;20116;-63
2022/04/24 07:36:42;;;;;;;10.43;9.38;;;;;;;13.94;46.16;100238.19;5046787;28;20511;-63
2022/04/24 07:39:08;;;;;;;10.50;9.27;;;;;;;14.02;46.95;100233.03;5012081;28;20034;-63
2022/04/24 07:41:33;;;;;;;13.60;9.52;;;;;;;14.16;46.51;100235.34;5034883;28;20037;-63
2022/04/24 07:43:59;;;;;;;11.43;10.32;;;;;;;14.23;45.61;100235.63;5044115;28;20392;-63
2022/04/24 07:46:24;;;;;;;11.77;9.82;;;;;;;14.28;45.58;100234.25;5028724;28;20037;-63
2022/04/24 07:48:49;;;;;;;11.65;9.20;;;;;;;14.45;44.94;100237.28;5030884;28;20044;-63
2022/04/24 07:51:15;;;;;;;10.73;9.63;;;;;;;14.65;45.04;100236.38;5048876;28;20041;-63
2022/04/24 07:53:44;;;;;;;10.95;9.07;;;;;;;14.68;45.29;100216.50;5030743;28;20073;-63
2022/04/24 07:56:10;;;;;;;10.18;9.20;;;;;;;14.74;44.48;100240.88;5059995;28;20034;-63
2022/04/24 07:58:35;;;;;;;10.75;9.55;;;;;;;14.88;44.35;100228.94;5030781;28;20569;-63
2022/04/24 08:01:03;;;;;;;10.15;9.13;;;;;;;14.99;43.59;100233.28;5030349;28;20037;-63
2022/04/24 08:03:29;;;;;;;10.98;9.35;;;;;;;15.11;43.74;100232.16;5031514;28;20060;-63
2022/04/24 08:05:54;;;;;;;9.93;9.02;;;;;;;15.29;43.58;100243.00;5046422;28;20060;-63
2022/04/24 08:08:22;;;;;;;10.35;9.35;;;;;;;15.43;43.11;100249.78;5046035;28;20072;-63
2022/04/24 08:10:55;;;;;;;10.20;9.15;;;;;;;15.45;43.16;100240.59;5031785;28;20029;-63
2022/04/24 08:13:22;;;;;;;10.60;9.38;;;;;;;15.63;42.84;100246.06;5029465;28;20025;-63
2022/04/24 08:15:48;;;;;;;16.23;9.60;;;;;;;15.66;42.65;100250.31;5049867;28;20049;-63
2022/04/24 08:18:14;;;;;;;12.95;9.55;;;;;;;15.71;42.34;100248.06;5031882;28;20766;-63
2022/04/24 08:20:43;;;;;;;10.57;9.38;;;;;;;15.72;41.87;100252.44;5029913;28;20029;-64
2022/04/24 08:23:12;;;;;;;11.50;8.88;;;;;;;15.90;41.92;100247.16;5030709;28;20021;-64
2022/04/24 08:25:38;;;;;;;11.70;9.68;;;;;;;16.03;41.77;100247.69;5032190;28;20400;-64
2022/04/24 08:28:06;;;;;;;11.75;8.63;;;;;;;16.22;40.79;100245.91;5029399;28;20109;-64
2022/04/24 08:30:33;;;;;;;10.15;9.25;;;;;;;16.24;40.88;100250.16;5031770;28;20025;-65
2022/04/24 08:32:58;;;;;;;10.73;9.40;;;;;;;16.30;39.61;100240.66;5030217;28;20018;-64
2022/04/24 08:35:24;;;;;;;11.90;9.82;;;;;;;16.49;41.28;100240.53;5029608;28;20487;-64
2022/04/24 08:37:50;;;;;;;11.77;9.15;;;;;;;16.52;40.02;100245.63;5030427;28;20034;-64
2022/04/24 08:40:17;;;;;;;11.10;9.80;;;;;;;16.38;40.13;100251.47;5030156;28;20056;-64
2022/04/24 08:42:43;;;;;;;10.10;9.15;;;;;;;16.58;40.07;100250.38;5029921;28;20052;-64
2022/04/24 08:45:12;;;;;;;10.52;9.52;;;;;;;16.66;40.45;100255.00;5030705;28;20544;-65
2022/04/24 08:47:39;;;;;;;11.18;10.07;;;;;;;16.71;39.39;100254.56;5030794;28;20076;-64
2022/04/24 08:50:06;;;;;;;15.25;10.18;;;;;;;16.83;39.74;100252.53;5029457;28;20033;-64
2022/04/24 08:52:31;;;;;;;12.98;9.93;;;;;;;16.93;39.37;100239.88;5042106;28;20033;-64
2022/04/24 08:54:58;;;;;;;11.30;10.10;;;;;;;17.10;38.63;100249.78;5031104;28;20033;-64
2022/04/24 08:57:26;;;;;;;11.25;10.15;;;;;;;17.21;39.05;100257.63;5030624;28;20038;-64
2022/04/24 08:59:54;;;;;;;14.63;10.48;;;;;;;17.30;38.23;100258.53;5030753;28;20030;-65
2022/04/24 09:02:20;;;;;;;11.38;10.32;;;;;;;17.45;38.62;100250.75;5030412;28;20534;-64
2022/04/24 09:04:45;;;;;;;12.02;10.25;;;;;;;17.57;38.06;100248.66;5045326;28;20116;-64
2022/04/24 09:07:17;;;;;;;11.82;9.88;;;;;;;17.63;37.33;100248.88;5032860;28;20076;-64
2022/04/24 09:09:44;;;;;;;10.93;9.60;;;;;;;17.75;36.80;100256.69;5034131;28;20036;-64
2022/04/24 09:12:15;;;;;;;13.27;9.55;;;;;;;17.83;36.85;100254.94;5049283;28;20393;-64
2022/04/24 09:14:41;;;;;;;11.65;10.50;;;;;;;17.99;36.85;100258.72;5033738;28;20489;-64
2022/04/24 09:17:16;;;;;;;10.77;9.48;;;;;;;18.08;37.09;100263.97;5034151;28;20034;-65
2022/04/24 09:19:42;;;;;;;11.13;9.88;;;;;;;18.20;37.02;100261.03;5033371;28;20108;-65
2022/04/24 09:22:09;;;;;;;11.48;10.27;;;;;;;18.11;35.92;100262.81;5048979;28;20068;-64
2022/04/24 09:24:44;;;;;;;11.65;10.20;;;;;;;18.17;35.76;100252.25;5033880;28;20048;-65
2022/04/24 09:27:23;;;;;;;11.70;10.48;;;;;;;18.45;36.73;100251.22;5033794;28;20041;-64
2022/04/24 09:30:01;;;;;;;11.40;10.13;;;;;;;18.54;36.15;100251.06;5033793;28;20174;-64
2022/04/24 09:32:29;;;;;;;12.63;10.40;;;;;;;18.65;35.62;100257.16;5033758;28;20175;-65
2022/04/24 09:34:55;;;;;;;13.40;10.82;;;;;;;18.64;35.62;100258.16;5033044;28;20033;-64
2022/04/24 09:37:22;;;;;;;12.02;10.20;;;;;;;18.67;35.33;100261.38;5033594;28;20021;-64
2022/04/24 09:39:51;;;;;;;12.55;10.25;;;;;;;18.78;35.32;100268.34;5033560;28;20018;-65
2022/04/24 09:42:20;;;;;;;11.90;10.80;;;;;;;18.70;34.98;100252.97;5033627;28;20025;-65
2022/04/24 09:44:50;;;;;;;12.10;10.88;;;;;;;18.76;34.56;100263.09;5033670;28;20105;-65
2022/04/24 09:47:26;;;;;;;12.98;10.07;;;;;;;18.93;35.19;100260.47;5033503;28;20033;-65
2022/04/24 09:49:52;;;;;;;11.80;10.60;;;;;;;19.03;34.53;100263.84;5032924;28;20029;-65
2022/04/24 09:52:25;;;;;;;12.43;11.20;;;;;;;19.13;33.54;100259.16;5033179;28;20033;-64
2022/04/24 09:54:55;;;;;;;12.85;11.23;;;;;;;19.12;34.84;100257.47;5033327;28;20025;-65
2022/04/24 09:57:25;;;;;;;14.90;10.52;;;;;;;19.08;34.03;100266.06;5033444;28;20036;-65
2022/04/24 09:59:51;;;;;;;12.07;10.85;;;;;;;19.38;34.40;100249.22;5033281;28;20071;-65
2022/04/24 10:02:18;;;;;;;12.15;10.95;;;;;;;19.56;33.90;100254.47;5033138;28;20025;-65
2022/04/24 10:04:45;;;;;;;12.32;11.15;;;;;;;19.63;33.45;100260.00;5032539;28;20056;-65
2022/04/24 10:07:13;;;;;;;16.15;12.07;;;;;;;19.57;32.96;100258.00;5033613;28;20030;-64
2022/04/24 10:09:40;;;;;;;13.38;11.55;;;;;;;19.68;32.98;100261.22;5033264;28;20048;-64
2022/04/24 10:12:10;;;;;;;14.48;11.20;;;;;;;19.71;32.89;100260.03;5032643;28;20503;-64
2022/04/24 10:14:44;;;;;;;13.63;12.10;;;;;;;19.90;33.11;100261.50;5032719;28;20049;-64
2022/04/24 10:17:38;;;;;;;12.25;10.77;;;;;;;19.96;33.95;100255.41;5032190;28;20040;-65
2022/04/24 10:20:28;;;;;;;13.00;11.63;;;;;;;20.14;33.12;100260.59;5031068;28;20078;-65
2022/04/24 10:22:55;;;;;;;13.25;11.98;;;;;;;20.03;32.14;100259.13;5032580;28;20037;-64
2022/04/24 10:25:32;;;;;;;21.38;11.32;;;;;;;20.12;32.70;100263.50;5031296;28;20025;-64
2022/04/24 10:28:16;;;;;;;12.88;11.48;;;;;;;20.08;32.22;100259.44;5032933;28;20022;-64
2022/04/24 10:30:44;;;;;;;15.45;11.35;;;;;;;20.28;32.40;100268.00;5031264;28;20033;-65
2022/04/24 10:33:23;;;;;;;13.63;10.63;;;;;;;20.42;33.15;100261.84;5031824;28;20473;-65
2022/04/24 10:35:53;;;;;;;13.27;10.75;;;;;;;20.59;31.67;100254.56;5032665;28;20066;-65
2022/04/24 10:38:23;;;;;;;13.18;9.73;;;;;;;20.68;32.14;100260.78;5032345;28;20834;-65
2022/04/24 10:40:58;;;;;;;11.38;9.93;;;;;;;20.77;31.23;100267.81;5032321;28;20422;-65
2022/04/24 10:43:25;;;;;;;11.80;10.57;;;;;;;20.84;30.43;100262.53;5032236;28;20029;-65
2022/04/24 10:45:55;;;;;;;13.60;10.52;;;;;;;20.84;30.10;100260.66;5047618;28;20030;-67
2022/04/24 10:48:31;;;;;;;11.20;9.38;;;;;;;21.08;31.07;100273.19;5032178;28;20033;-65
2022/04/24 10:50:56;;;;;;;9.50;8.60;;;;;;;21.25;30.51;100265.81;5052602;28;20460;-66
2022/04/24 10:53:25;;;;;;;12.43;8.88;;;;;;;21.27;30.80;100268.34;5014167;28;20128;-65
2022/04/24 10:55:50;;;;;;;11.33;8.63;;;;;;;21.33;29.81;100264.91;5032379;28;20554;-66
2022/04/24 10:58:27;;;;;;;11.70;8.40;;;;;;;21.24;30.54;100268.69;5014216;28;20291;-65
2022/04/24 11:00:52;;;;;;;9.63;8.73;;;;;;;21.20;29.17;100259.25;5044876;28;20504;-65
2022/04/24 11:03:19;;;;;;;9.75;8.60;;;;;;;21.16;28.26;100268.75;5063958;28;20033;-65
2022/04/24 11:05:46;;;;;;;9.90;7.60;;;;;;;21.41;29.15;100269.44;5031811;28;20469;-65
2022/04/24 11:08:20;;;;;;;8.88;8.00;;;;;;;21.36;28.67;100266.41;5047316;28;20033;-65
2022/04/24 11:10:47;;;;;;;8.00;7.20;;;;;;;21.59;29.28;100260.97;5031744;28;20476;-66
2022/04/24 11:13:18;;;;;;;8.73;7.72;;;;;;;21.53;29.42;100266.13;5031571;28;20392;-66
2022/04/24 11:15:48;;;;;;;8.27;7.00;;;;;;;21.70;30.19;100252.44;5031440;28;20048;-66
2022/04/24 11:18:27;;;;;;;9.55;7.97;;;;;;;21.86;29.93;100262.28;5031741;28;20033;-66